sensor_id;sensor_type;location;lat;lon;timestamp;P1;durP1;ratioP1;P2;durP2;ratioP2
16662;SDS011;8445;51.270;9.434;2023-09-12T00:00:56;22.98;;;10.75;;
16662;SDS011;8445;51.270;9.434;2023-09-12T00:03:22;17.50;;;10.85;;
16662;SDS011;8445;51.270;9.434;2023-09-12T00:05:52;19.50;;;10.65;;
16662;SDS011;8445;51.270;9.434;2023-09-12T00:08:22;19.00;;;10.55;;
16662;SDS011;8445;51.270;9.434;2023-09-12T00:11:02;20.00;;;12.30;;
16662;SDS011;8445;51.270;9.434;2023-09-12T00:13:38;20.45;;;11.48;;
16662;SDS011;8445;51.270;9.434;2023-09-12T00:16:06;18.85;;;11.52;;
16662;SDS011;8445;51.270;9.434;2023-09-12T00:18:41;23.33;;;11.15;;
16662;SDS011;8445;51.270;9.434;2023-09-12T00:21:07;22.23;;;11.02;;
16662;SDS011;8445;51.270;9.434;2023-09-12T00:23:36;24.23;;;10.90;;
16662;SDS011;8445;51.270;9.434;2023-09-12T00:26:03;24.90;;;12.20;;
16662;SDS011;8445;51.270;9.434;2023-09-12T00:28:29;18.95;;;10.98;;
16662;SDS011;8445;51.270;9.434;2023-09-12T00:30:55;16.50;;;11.40;;
16662;SDS011;8445;51.270;9.434;2023-09-12T00:33:22;17.92;;;11.65;;
16662;SDS011;8445;51.270;9.434;2023-09-12T00:35:48;17.98;;;11.75;;
16662;SDS011;8445;51.270;9.434;2023-09-12T00:38:16;21.10;;;11.77;;
16662;SDS011;8445;51.270;9.434;2023-09-12T00:40:42;21.95;;;11.35;;
16662;SDS011;8445;51.270;9.434;2023-09-12T00:43:08;19.15;;;11.85;;
16662;SDS011;8445;51.270;9.434;2023-09-12T00:45:35;14.75;;;11.57;;
16662;SDS011;8445;51.270;9.434;2023-09-12T00:48:03;20.92;;;11.88;;
16662;SDS011;8445;51.270;9.434;2023-09-12T00:50:31;24.13;;;13.25;;
16662;SDS011;8445;51.270;9.434;2023-09-12T00:52:59;21.05;;;12.52;;
16662;SDS011;8445;51.270;9.434;2023-09-12T00:55:26;17.48;;;11.68;;
16662;SDS011;8445;51.270;9.434;2023-09-12T00:57:54;16.30;;;11.38;;
16662;SDS011;8445;51.270;9.434;2023-09-12T01:00:20;18.70;;;12.35;;
16662;SDS011;8445;51.270;9.434;2023-09-12T01:02:47;20.35;;;12.45;;
16662;SDS011;8445;51.270;9.434;2023-09-12T01:05:15;20.02;;;12.18;;
16662;SDS011;8445;51.270;9.434;2023-09-12T01:07:45;22.30;;;13.40;;
16662;SDS011;8445;51.270;9.434;2023-09-12T01:10:11;18.70;;;13.13;;
16662;SDS011;8445;51.270;9.434;2023-09-12T01:12:38;20.45;;;12.93;;
16662;SDS011;8445;51.270;9.434;2023-09-12T01:15:11;20.88;;;12.32;;
16662;SDS011;8445;51.270;9.434;2023-09-12T01:17:45;22.08;;;13.50;;
16662;SDS011;8445;51.270;9.434;2023-09-12T01:20:14;20.00;;;13.13;;
16662;SDS011;8445;51.270;9.434;2023-09-12T01:28:34;18.02;;;13.20;;
16662;SDS011;8445;51.270;9.434;2023-09-12T01:31:08;26.33;;;14.55;;
16662;SDS011;8445;51.270;9.434;2023-09-12T01:33:36;19.40;;;12.52;;
16662;SDS011;8445;51.270;9.434;2023-09-12T01:36:02;23.13;;;11.90;;
16662;SDS011;8445;51.270;9.434;2023-09-12T01:38:28;17.05;;;12.82;;
16662;SDS011;8445;51.270;9.434;2023-09-12T01:40:57;21.33;;;12.35;;
16662;SDS011;8445;51.270;9.434;2023-09-12T01:43:29;15.77;;;11.85;;
16662;SDS011;8445;51.270;9.434;2023-09-12T01:45:58;15.27;;;12.38;;
16662;SDS011;8445;51.270;9.434;2023-09-12T01:48:28;20.33;;;12.15;;
16662;SDS011;8445;51.270;9.434;2023-09-12T01:51:00;18.70;;;12.13;;
16662;SDS011;8445;51.270;9.434;2023-09-12T01:53:29;24.27;;;12.35;;
16662;SDS011;8445;51.270;9.434;2023-09-12T01:55:58;19.27;;;12.00;;
16662;SDS011;8445;51.270;9.434;2023-09-12T01:58:25;20.33;;;12.60;;
16662;SDS011;8445;51.270;9.434;2023-09-12T02:00:55;16.25;;;12.32;;
16662;SDS011;8445;51.270;9.434;2023-09-12T02:03:22;22.75;;;12.82;;
16662;SDS011;8445;51.270;9.434;2023-09-12T02:05:50;20.55;;;13.40;;
16662;SDS011;8445;51.270;9.434;2023-09-12T02:08:17;22.05;;;14.18;;
16662;SDS011;8445;51.270;9.434;2023-09-12T02:10:43;21.27;;;14.32;;
16662;SDS011;8445;51.270;9.434;2023-09-12T02:13:09;22.95;;;14.60;;
16662;SDS011;8445;51.270;9.434;2023-09-12T02:15:35;22.80;;;14.40;;
16662;SDS011;8445;51.270;9.434;2023-09-12T02:18:01;20.80;;;15.63;;
16662;SDS011;8445;51.270;9.434;2023-09-12T02:20:28;19.90;;;14.98;;
16662;SDS011;8445;51.270;9.434;2023-09-12T02:22:56;21.85;;;15.15;;
16662;SDS011;8445;51.270;9.434;2023-09-12T02:25:24;24.45;;;14.60;;
16662;SDS011;8445;51.270;9.434;2023-09-12T02:27:50;25.98;;;15.57;;
16662;SDS011;8445;51.270;9.434;2023-09-12T02:30:16;18.73;;;15.60;;
16662;SDS011;8445;51.270;9.434;2023-09-12T02:32:42;21.30;;;17.13;;
16662;SDS011;8445;51.270;9.434;2023-09-12T02:35:08;20.75;;;16.95;;
16662;SDS011;8445;51.270;9.434;2023-09-12T02:37:34;21.77;;;15.88;;
16662;SDS011;8445;51.270;9.434;2023-09-12T02:40:01;29.98;;;15.68;;
16662;SDS011;8445;51.270;9.434;2023-09-12T02:42:30;23.48;;;15.25;;
16662;SDS011;8445;51.270;9.434;2023-09-12T02:44:57;20.33;;;15.25;;
16662;SDS011;8445;51.270;9.434;2023-09-12T02:47:23;22.38;;;15.55;;
16662;SDS011;8445;51.270;9.434;2023-09-12T02:49:49;21.38;;;15.85;;
16662;SDS011;8445;51.270;9.434;2023-09-12T02:52:15;25.98;;;16.25;;
16662;SDS011;8445;51.270;9.434;2023-09-12T02:54:47;18.92;;;15.40;;
16662;SDS011;8445;51.270;9.434;2023-09-12T02:57:12;22.13;;;15.13;;
16662;SDS011;8445;51.270;9.434;2023-09-12T02:59:42;17.95;;;14.68;;
16662;SDS011;8445;51.270;9.434;2023-09-12T03:02:10;26.73;;;15.23;;
16662;SDS011;8445;51.270;9.434;2023-09-12T03:04:36;26.38;;;15.95;;
16662;SDS011;8445;51.270;9.434;2023-09-12T03:07:02;21.17;;;15.18;;
16662;SDS011;8445;51.270;9.434;2023-09-12T03:09:28;22.25;;;16.38;;
16662;SDS011;8445;51.270;9.434;2023-09-12T03:11:54;21.00;;;15.85;;
16662;SDS011;8445;51.270;9.434;2023-09-12T03:14:20;20.02;;;16.05;;
16662;SDS011;8445;51.270;9.434;2023-09-12T03:16:46;26.13;;;15.35;;
16662;SDS011;8445;51.270;9.434;2023-09-12T03:19:12;26.77;;;18.17;;
16662;SDS011;8445;51.270;9.434;2023-09-12T03:21:39;30.90;;;18.00;;
16662;SDS011;8445;51.270;9.434;2023-09-12T03:24:05;23.20;;;17.63;;
16662;SDS011;8445;51.270;9.434;2023-09-12T03:26:33;19.88;;;15.63;;
16662;SDS011;8445;51.270;9.434;2023-09-12T03:29:00;21.55;;;14.75;;
16662;SDS011;8445;51.270;9.434;2023-09-12T03:31:26;26.20;;;15.25;;
16662;SDS011;8445;51.270;9.434;2023-09-12T03:33:54;21.70;;;16.42;;
16662;SDS011;8445;51.270;9.434;2023-09-12T03:36:20;21.15;;;13.73;;
16662;SDS011;8445;51.270;9.434;2023-09-12T03:38:46;24.63;;;15.25;;
16662;SDS011;8445;51.270;9.434;2023-09-12T03:41:12;22.58;;;15.40;;
16662;SDS011;8445;51.270;9.434;2023-09-12T03:43:38;24.02;;;16.15;;
16662;SDS011;8445;51.270;9.434;2023-09-12T03:46:05;19.73;;;15.43;;
16662;SDS011;8445;51.270;9.434;2023-09-12T03:48:31;25.77;;;16.60;;
16662;SDS011;8445;51.270;9.434;2023-09-12T03:51:03;27.40;;;16.75;;
16662;SDS011;8445;51.270;9.434;2023-09-12T03:53:29;23.98;;;17.45;;
16662;SDS011;8445;51.270;9.434;2023-09-12T03:55:57;22.15;;;17.17;;
16662;SDS011;8445;51.270;9.434;2023-09-12T03:58:24;26.67;;;17.33;;
16662;SDS011;8445;51.270;9.434;2023-09-12T04:00:50;20.25;;;16.23;;
16662;SDS011;8445;51.270;9.434;2023-09-12T04:03:16;28.02;;;17.48;;
16662;SDS011;8445;51.270;9.434;2023-09-12T04:05:43;27.88;;;18.95;;
16662;SDS011;8445;51.270;9.434;2023-09-12T04:08:15;25.33;;;17.98;;
16662;SDS011;8445;51.270;9.434;2023-09-12T04:10:42;23.48;;;18.15;;
16662;SDS011;8445;51.270;9.434;2023-09-12T04:13:08;25.05;;;17.75;;
16662;SDS011;8445;51.270;9.434;2023-09-12T04:15:34;20.67;;;16.55;;
16662;SDS011;8445;51.270;9.434;2023-09-12T04:18:00;22.20;;;16.35;;
16662;SDS011;8445;51.270;9.434;2023-09-12T04:20:26;28.83;;;19.38;;
16662;SDS011;8445;51.270;9.434;2023-09-12T04:22:52;25.05;;;18.15;;
16662;SDS011;8445;51.270;9.434;2023-09-12T04:25:18;20.05;;;16.63;;
16662;SDS011;8445;51.270;9.434;2023-09-12T04:27:45;22.90;;;16.75;;
16662;SDS011;8445;51.270;9.434;2023-09-12T04:30:11;24.52;;;17.42;;
16662;SDS011;8445;51.270;9.434;2023-09-12T04:32:38;20.63;;;16.50;;
16662;SDS011;8445;51.270;9.434;2023-09-12T04:35:06;23.90;;;16.00;;
16662;SDS011;8445;51.270;9.434;2023-09-12T04:37:32;24.20;;;16.13;;
16662;SDS011;8445;51.270;9.434;2023-09-12T04:39:59;23.80;;;17.48;;
16662;SDS011;8445;51.270;9.434;2023-09-12T04:42:25;24.80;;;16.63;;
16662;SDS011;8445;51.270;9.434;2023-09-12T04:44:53;25.52;;;17.20;;
16662;SDS011;8445;51.270;9.434;2023-09-12T04:47:19;21.92;;;16.55;;
16662;SDS011;8445;51.270;9.434;2023-09-12T04:49:46;23.63;;;17.90;;
16662;SDS011;8445;51.270;9.434;2023-09-12T04:52:12;27.63;;;18.08;;
16662;SDS011;8445;51.270;9.434;2023-09-12T04:54:38;23.73;;;18.17;;
16662;SDS011;8445;51.270;9.434;2023-09-12T04:57:07;32.42;;;18.77;;
16662;SDS011;8445;51.270;9.434;2023-09-12T04:59:36;30.30;;;19.25;;
16662;SDS011;8445;51.270;9.434;2023-09-12T05:02:02;27.33;;;17.85;;
16662;SDS011;8445;51.270;9.434;2023-09-12T05:04:31;29.48;;;18.85;;
16662;SDS011;8445;51.270;9.434;2023-09-12T05:07:00;30.02;;;18.80;;
16662;SDS011;8445;51.270;9.434;2023-09-12T05:09:29;25.85;;;19.27;;
16662;SDS011;8445;51.270;9.434;2023-09-12T05:12:00;28.02;;;19.75;;
16662;SDS011;8445;51.270;9.434;2023-09-12T05:14:29;20.08;;;17.20;;
16662;SDS011;8445;51.270;9.434;2023-09-12T05:16:55;25.13;;;17.80;;
16662;SDS011;8445;51.270;9.434;2023-09-12T05:19:29;26.05;;;17.10;;
16662;SDS011;8445;51.270;9.434;2023-09-12T05:21:58;21.77;;;17.33;;
16662;SDS011;8445;51.270;9.434;2023-09-12T05:24:24;26.80;;;16.80;;
16662;SDS011;8445;51.270;9.434;2023-09-12T05:26:50;30.25;;;16.95;;
16662;SDS011;8445;51.270;9.434;2023-09-12T05:29:16;26.88;;;17.30;;
16662;SDS011;8445;51.270;9.434;2023-09-12T05:31:44;19.10;;;16.90;;
16662;SDS011;8445;51.270;9.434;2023-09-12T05:34:11;26.90;;;16.77;;
16662;SDS011;8445;51.270;9.434;2023-09-12T05:36:44;20.05;;;15.93;;
16662;SDS011;8445;51.270;9.434;2023-09-12T05:39:10;22.25;;;16.38;;
16662;SDS011;8445;51.270;9.434;2023-09-12T05:41:42;23.58;;;15.38;;
16662;SDS011;8445;51.270;9.434;2023-09-12T05:44:15;22.20;;;16.23;;
16662;SDS011;8445;51.270;9.434;2023-09-12T05:46:45;25.33;;;16.08;;
16662;SDS011;8445;51.270;9.434;2023-09-12T05:49:12;23.58;;;15.35;;
16662;SDS011;8445;51.270;9.434;2023-09-12T05:51:50;25.55;;;15.32;;
16662;SDS011;8445;51.270;9.434;2023-09-12T05:54:17;23.55;;;14.60;;
16662;SDS011;8445;51.270;9.434;2023-09-12T05:56:44;22.88;;;15.50;;
16662;SDS011;8445;51.270;9.434;2023-09-12T05:59:21;23.17;;;16.02;;
16662;SDS011;8445;51.270;9.434;2023-09-12T06:01:50;25.77;;;15.80;;
16662;SDS011;8445;51.270;9.434;2023-09-12T06:04:18;21.88;;;15.30;;
16662;SDS011;8445;51.270;9.434;2023-09-12T06:06:45;29.50;;;14.45;;
16662;SDS011;8445;51.270;9.434;2023-09-12T06:09:12;18.83;;;14.07;;
16662;SDS011;8445;51.270;9.434;2023-09-12T06:11:38;24.20;;;15.23;;
16662;SDS011;8445;51.270;9.434;2023-09-12T06:14:04;22.45;;;13.32;;
16662;SDS011;8445;51.270;9.434;2023-09-12T06:16:30;22.17;;;14.15;;
16662;SDS011;8445;51.270;9.434;2023-09-12T06:18:59;25.77;;;13.75;;
16662;SDS011;8445;51.270;9.434;2023-09-12T06:21:24;22.02;;;14.68;;
16662;SDS011;8445;51.270;9.434;2023-09-12T06:24:07;19.20;;;13.27;;
16662;SDS011;8445;51.270;9.434;2023-09-12T06:26:36;20.17;;;13.48;;
16662;SDS011;8445;51.270;9.434;2023-09-12T06:29:03;24.40;;;13.60;;
16662;SDS011;8445;51.270;9.434;2023-09-12T06:31:32;19.58;;;13.57;;
16662;SDS011;8445;51.270;9.434;2023-09-12T06:33:59;20.55;;;12.38;;
16662;SDS011;8445;51.270;9.434;2023-09-12T06:36:28;16.30;;;12.20;;
16662;SDS011;8445;51.270;9.434;2023-09-12T06:39:00;23.10;;;12.10;;
16662;SDS011;8445;51.270;9.434;2023-09-12T06:41:28;21.55;;;12.20;;
16662;SDS011;8445;51.270;9.434;2023-09-12T06:43:54;20.67;;;12.50;;
16662;SDS011;8445;51.270;9.434;2023-09-12T06:46:31;16.67;;;12.98;;
16662;SDS011;8445;51.270;9.434;2023-09-12T06:49:01;19.73;;;13.13;;
16662;SDS011;8445;51.270;9.434;2023-09-12T06:51:31;18.35;;;12.25;;
16662;SDS011;8445;51.270;9.434;2023-09-12T06:53:57;23.88;;;12.85;;
16662;SDS011;8445;51.270;9.434;2023-09-12T06:56:25;21.98;;;14.18;;
16662;SDS011;8445;51.270;9.434;2023-09-12T06:58:52;23.98;;;13.80;;
16662;SDS011;8445;51.270;9.434;2023-09-12T07:01:20;24.20;;;14.15;;
16662;SDS011;8445;51.270;9.434;2023-09-12T07:03:46;24.80;;;14.50;;
16662;SDS011;8445;51.270;9.434;2023-09-12T07:06:12;20.90;;;15.25;;
16662;SDS011;8445;51.270;9.434;2023-09-12T07:08:39;25.15;;;14.63;;
16662;SDS011;8445;51.270;9.434;2023-09-12T07:11:05;27.77;;;15.23;;
16662;SDS011;8445;51.270;9.434;2023-09-12T07:13:33;24.80;;;16.67;;
16662;SDS011;8445;51.270;9.434;2023-09-12T07:16:02;22.90;;;16.52;;
16662;SDS011;8445;51.270;9.434;2023-09-12T07:18:30;22.85;;;16.52;;
16662;SDS011;8445;51.270;9.434;2023-09-12T07:21:00;22.60;;;16.73;;
16662;SDS011;8445;51.270;9.434;2023-09-12T07:23:29;20.67;;;16.42;;
16662;SDS011;8445;51.270;9.434;2023-09-12T07:25:58;21.05;;;17.23;;
16662;SDS011;8445;51.270;9.434;2023-09-12T07:28:25;22.10;;;16.98;;
16662;SDS011;8445;51.270;9.434;2023-09-12T07:30:52;20.52;;;16.45;;
16662;SDS011;8445;51.270;9.434;2023-09-12T07:33:20;26.42;;;16.63;;
16662;SDS011;8445;51.270;9.434;2023-09-12T07:35:47;24.48;;;16.92;;
16662;SDS011;8445;51.270;9.434;2023-09-12T07:38:17;22.40;;;15.95;;
16662;SDS011;8445;51.270;9.434;2023-09-12T07:40:45;21.83;;;16.25;;
16662;SDS011;8445;51.270;9.434;2023-09-12T07:43:14;22.63;;;15.45;;
16662;SDS011;8445;51.270;9.434;2023-09-12T07:45:43;27.63;;;16.27;;
16662;SDS011;8445;51.270;9.434;2023-09-12T07:48:11;23.00;;;16.25;;
16662;SDS011;8445;51.270;9.434;2023-09-12T07:50:40;22.08;;;16.42;;
16662;SDS011;8445;51.270;9.434;2023-09-12T07:53:10;23.02;;;17.45;;
16662;SDS011;8445;51.270;9.434;2023-09-12T07:55:37;21.98;;;15.88;;
16662;SDS011;8445;51.270;9.434;2023-09-12T07:58:11;18.65;;;15.02;;
16662;SDS011;8445;51.270;9.434;2023-09-12T08:00:46;20.55;;;17.20;;
16662;SDS011;8445;51.270;9.434;2023-09-12T08:03:12;28.92;;;16.85;;
16662;SDS011;8445;51.270;9.434;2023-09-12T08:05:40;22.15;;;15.90;;
16662;SDS011;8445;51.270;9.434;2023-09-12T08:08:06;19.20;;;15.57;;
16662;SDS011;8445;51.270;9.434;2023-09-12T08:10:32;25.88;;;17.52;;
16662;SDS011;8445;51.270;9.434;2023-09-12T08:12:58;19.95;;;17.02;;
16662;SDS011;8445;51.270;9.434;2023-09-12T08:15:27;18.42;;;16.20;;
16662;SDS011;8445;51.270;9.434;2023-09-12T08:17:59;18.42;;;16.58;;
16662;SDS011;8445;51.270;9.434;2023-09-12T08:20:25;18.38;;;16.00;;
16662;SDS011;8445;51.270;9.434;2023-09-12T08:22:54;19.60;;;16.15;;
16662;SDS011;8445;51.270;9.434;2023-09-12T08:25:24;22.75;;;16.48;;
16662;SDS011;8445;51.270;9.434;2023-09-12T08:27:58;19.25;;;14.80;;
16662;SDS011;8445;51.270;9.434;2023-09-12T08:30:29;18.20;;;14.43;;
16662;SDS011;8445;51.270;9.434;2023-09-12T08:32:55;21.20;;;15.65;;
16662;SDS011;8445;51.270;9.434;2023-09-12T08:35:24;16.67;;;12.63;;
16662;SDS011;8445;51.270;9.434;2023-09-12T08:37:54;12.40;;;10.10;;
16662;SDS011;8445;51.270;9.434;2023-09-12T08:40:25;17.95;;;10.77;;
16662;SDS011;8445;51.270;9.434;2023-09-12T08:42:55;12.65;;;11.35;;
16662;SDS011;8445;51.270;9.434;2023-09-12T08:45:23;14.85;;;11.07;;
16662;SDS011;8445;51.270;9.434;2023-09-12T08:47:58;13.45;;;10.70;;
16662;SDS011;8445;51.270;9.434;2023-09-12T08:50:31;13.05;;;11.75;;
16662;SDS011;8445;51.270;9.434;2023-09-12T08:53:19;14.45;;;11.40;;
16662;SDS011;8445;51.270;9.434;2023-09-12T08:55:59;18.27;;;9.90;;
16662;SDS011;8445;51.270;9.434;2023-09-12T08:58:37;17.98;;;11.20;;
16662;SDS011;8445;51.270;9.434;2023-09-12T09:01:29;14.73;;;10.88;;
16662;SDS011;8445;51.270;9.434;2023-09-12T09:04:12;11.85;;;9.85;;
16662;SDS011;8445;51.270;9.434;2023-09-12T09:06:38;11.73;;;9.65;;
16662;SDS011;8445;51.270;9.434;2023-09-12T09:09:16;14.70;;;8.98;;
16662;SDS011;8445;51.270;9.434;2023-09-12T09:11:44;15.68;;;9.88;;
16662;SDS011;8445;51.270;9.434;2023-09-12T09:14:10;12.60;;;9.40;;
16662;SDS011;8445;51.270;9.434;2023-09-12T09:16:38;11.82;;;9.18;;
16662;SDS011;8445;51.270;9.434;2023-09-12T09:19:07;15.30;;;13.07;;
16662;SDS011;8445;51.270;9.434;2023-09-12T09:21:36;11.77;;;8.63;;
16662;SDS011;8445;51.270;9.434;2023-09-12T09:24:09;12.48;;;8.60;;
16662;SDS011;8445;51.270;9.434;2023-09-12T09:26:48;10.13;;;8.50;;
16662;SDS011;8445;51.270;9.434;2023-09-12T09:29:45;13.90;;;8.43;;
16662;SDS011;8445;51.270;9.434;2023-09-12T09:32:17;12.85;;;8.20;;
16662;SDS011;8445;51.270;9.434;2023-09-12T09:34:49;10.93;;;7.85;;
16662;SDS011;8445;51.270;9.434;2023-09-12T09:37:17;11.95;;;8.07;;
16662;SDS011;8445;51.270;9.434;2023-09-12T09:39:46;9.40;;;8.13;;
16662;SDS011;8445;51.270;9.434;2023-09-12T09:42:17;8.45;;;7.13;;
16662;SDS011;8445;51.270;9.434;2023-09-12T09:44:46;11.38;;;8.90;;
16662;SDS011;8445;51.270;9.434;2023-09-12T09:47:14;9.38;;;8.07;;
16662;SDS011;8445;51.270;9.434;2023-09-12T09:49:52;10.38;;;8.52;;
16662;SDS011;8445;51.270;9.434;2023-09-12T09:52:24;12.55;;;8.35;;
16662;SDS011;8445;51.270;9.434;2023-09-12T09:55:06;10.50;;;8.52;;
16662;SDS011;8445;51.270;9.434;2023-09-12T09:57:47;10.75;;;8.50;;
16662;SDS011;8445;51.270;9.434;2023-09-12T10:00:20;13.10;;;8.90;;
16662;SDS011;8445;51.270;9.434;2023-09-12T10:02:59;10.02;;;8.70;;
16662;SDS011;8445;51.270;9.434;2023-09-12T10:05:32;11.80;;;8.27;;
16662;SDS011;8445;51.270;9.434;2023-09-12T10:08:06;10.13;;;8.68;;
16662;SDS011;8445;51.270;9.434;2023-09-12T10:10:55;13.38;;;9.02;;
16662;SDS011;8445;51.270;9.434;2023-09-12T10:13:35;10.18;;;8.15;;
16662;SDS011;8445;51.270;9.434;2023-09-12T10:16:11;10.32;;;8.48;;
16662;SDS011;8445;51.270;9.434;2023-09-12T10:19:10;10.85;;;8.70;;
16662;SDS011;8445;51.270;9.434;2023-09-12T10:22:08;16.98;;;9.10;;
16662;SDS011;8445;51.270;9.434;2023-09-12T10:29:44;12.88;;;8.73;;
16662;SDS011;8445;51.270;9.434;2023-09-12T10:32:40;10.43;;;8.75;;
16662;SDS011;8445;51.270;9.434;2023-09-12T10:35:27;12.13;;;8.50;;
16662;SDS011;8445;51.270;9.434;2023-09-12T10:38:11;10.63;;;8.57;;
16662;SDS011;8445;51.270;9.434;2023-09-12T10:40:56;9.75;;;8.65;;
16662;SDS011;8445;51.270;9.434;2023-09-12T10:44:09;10.73;;;8.52;;
16662;SDS011;8445;51.270;9.434;2023-09-12T10:47:36;11.45;;;8.70;;
16662;SDS011;8445;51.270;9.434;2023-09-12T10:50:03;18.52;;;8.48;;
16662;SDS011;8445;51.270;9.434;2023-09-12T10:52:31;10.80;;;8.70;;
16662;SDS011;8445;51.270;9.434;2023-09-12T10:55:02;14.82;;;8.75;;
16662;SDS011;8445;51.270;9.434;2023-09-12T10:57:30;12.45;;;9.05;;
16662;SDS011;8445;51.270;9.434;2023-09-12T11:02:33;11.25;;;7.88;;
16662;SDS011;8445;51.270;9.434;2023-09-12T11:05:35;11.25;;;8.32;;
16662;SDS011;8445;51.270;9.434;2023-09-12T11:07:56;11.43;;;7.78;;
16662;SDS011;8445;51.270;9.434;2023-09-12T11:10:26;10.80;;;7.82;;
16662;SDS011;8445;51.270;9.434;2023-09-12T11:12:57;10.63;;;8.18;;
16662;SDS011;8445;51.270;9.434;2023-09-12T11:15:32;10.55;;;8.07;;
16662;SDS011;8445;51.270;9.434;2023-09-12T11:20:49;13.43;;;8.73;;
16662;SDS011;8445;51.270;9.434;2023-09-12T11:23:36;15.43;;;8.40;;
16662;SDS011;8445;51.270;9.434;2023-09-12T11:26:19;10.95;;;7.90;;
16662;SDS011;8445;51.270;9.434;2023-09-12T11:29:11;10.07;;;8.13;;
16662;SDS011;8445;51.270;9.434;2023-09-12T11:31:41;8.70;;;7.80;;
16662;SDS011;8445;51.270;9.434;2023-09-12T11:34:27;10.80;;;7.80;;
16662;SDS011;8445;51.270;9.434;2023-09-12T11:36:57;10.80;;;8.27;;
16662;SDS011;8445;51.270;9.434;2023-09-12T11:39:31;12.18;;;8.43;;
16662;SDS011;8445;51.270;9.434;2023-09-12T11:42:22;10.82;;;8.80;;
16662;SDS011;8445;51.270;9.434;2023-09-12T11:45:29;15.93;;;8.50;;
16662;SDS011;8445;51.270;9.434;2023-09-12T11:48:05;9.82;;;8.38;;
16662;SDS011;8445;51.270;9.434;2023-09-12T11:51:14;9.13;;;8.13;;
16662;SDS011;8445;51.270;9.434;2023-09-12T11:53:49;10.30;;;8.15;;
16662;SDS011;8445;51.270;9.434;2023-09-12T11:56:51;8.02;;;7.43;;
16662;SDS011;8445;51.270;9.434;2023-09-12T12:03:44;9.50;;;8.02;;
16662;SDS011;8445;51.270;9.434;2023-09-12T12:06:55;10.45;;;7.43;;
16662;SDS011;8445;51.270;9.434;2023-09-12T12:09:34;10.18;;;7.80;;
16662;SDS011;8445;51.270;9.434;2023-09-12T12:12:11;13.35;;;7.22;;
16662;SDS011;8445;51.270;9.434;2023-09-12T12:14:42;9.27;;;8.05;;
16662;SDS011;8445;51.270;9.434;2023-09-12T12:17:10;11.07;;;7.55;;
16662;SDS011;8445;51.270;9.434;2023-09-12T12:19:39;11.13;;;7.65;;
16662;SDS011;8445;51.270;9.434;2023-09-12T12:22:18;8.65;;;7.80;;
16662;SDS011;8445;51.270;9.434;2023-09-12T12:24:53;9.32;;;7.30;;
16662;SDS011;8445;51.270;9.434;2023-09-12T12:28:14;12.05;;;7.72;;
16662;SDS011;8445;51.270;9.434;2023-09-12T12:34:32;10.60;;;7.40;;
16662;SDS011;8445;51.270;9.434;2023-09-12T12:37:05;8.65;;;7.85;;
16662;SDS011;8445;51.270;9.434;2023-09-12T12:40:01;8.85;;;7.40;;
16662;SDS011;8445;51.270;9.434;2023-09-12T12:42:48;10.98;;;7.80;;
16662;SDS011;8445;51.270;9.434;2023-09-12T12:45:23;11.73;;;6.70;;
16662;SDS011;8445;51.270;9.434;2023-09-12T12:48:10;9.80;;;7.50;;
16662;SDS011;8445;51.270;9.434;2023-09-12T12:50:46;12.02;;;7.10;;
16662;SDS011;8445;51.270;9.434;2023-09-12T12:53:15;12.75;;;8.10;;
16662;SDS011;8445;51.270;9.434;2023-09-12T12:55:42;11.50;;;7.60;;
16662;SDS011;8445;51.270;9.434;2023-09-12T12:58:11;9.07;;;7.70;;
16662;SDS011;8445;51.270;9.434;2023-09-12T13:00:39;8.82;;;7.90;;
16662;SDS011;8445;51.270;9.434;2023-09-12T13:03:10;10.80;;;8.23;;
16662;SDS011;8445;51.270;9.434;2023-09-12T13:05:36;11.32;;;7.72;;
16662;SDS011;8445;51.270;9.434;2023-09-12T13:08:12;13.85;;;8.18;;
16662;SDS011;8445;51.270;9.434;2023-09-12T13:10:42;13.88;;;8.63;;
16662;SDS011;8445;51.270;9.434;2023-09-12T13:13:14;13.15;;;8.95;;
16662;SDS011;8445;51.270;9.434;2023-09-12T13:15:48;9.77;;;7.63;;
16662;SDS011;8445;51.270;9.434;2023-09-12T13:18:18;16.13;;;7.88;;
16662;SDS011;8445;51.270;9.434;2023-09-12T13:21:01;9.43;;;8.27;;
16662;SDS011;8445;51.270;9.434;2023-09-12T13:23:29;10.95;;;7.95;;
16662;SDS011;8445;51.270;9.434;2023-09-12T13:26:05;14.65;;;7.97;;
16662;SDS011;8445;51.270;9.434;2023-09-12T13:28:36;11.18;;;7.32;;
16662;SDS011;8445;51.270;9.434;2023-09-12T13:31:06;8.98;;;7.45;;
16662;SDS011;8445;51.270;9.434;2023-09-12T13:33:35;11.65;;;8.70;;
16662;SDS011;8445;51.270;9.434;2023-09-12T13:36:04;13.07;;;7.50;;
16662;SDS011;8445;51.270;9.434;2023-09-12T13:38:37;14.98;;;7.38;;
16662;SDS011;8445;51.270;9.434;2023-09-12T13:41:07;13.05;;;8.15;;
16662;SDS011;8445;51.270;9.434;2023-09-12T13:43:39;9.80;;;7.72;;
16662;SDS011;8445;51.270;9.434;2023-09-12T13:46:18;9.10;;;7.80;;
16662;SDS011;8445;51.270;9.434;2023-09-12T13:48:46;9.63;;;7.45;;
16662;SDS011;8445;51.270;9.434;2023-09-12T13:51:26;9.93;;;7.47;;
16662;SDS011;8445;51.270;9.434;2023-09-12T13:53:53;17.73;;;7.75;;
16662;SDS011;8445;51.270;9.434;2023-09-12T13:56:20;8.93;;;7.90;;
16662;SDS011;8445;51.270;9.434;2023-09-12T13:58:53;9.30;;;7.50;;
16662;SDS011;8445;51.270;9.434;2023-09-12T14:01:21;14.00;;;7.40;;
16662;SDS011;8445;51.270;9.434;2023-09-12T14:04:08;16.50;;;8.70;;
16662;SDS011;8445;51.270;9.434;2023-09-12T14:06:36;8.40;;;7.47;;
16662;SDS011;8445;51.270;9.434;2023-09-12T14:09:07;10.55;;;7.70;;
16662;SDS011;8445;51.270;9.434;2023-09-12T14:11:36;10.32;;;7.47;;
16662;SDS011;8445;51.270;9.434;2023-09-12T14:14:13;13.07;;;7.55;;
16662;SDS011;8445;51.270;9.434;2023-09-12T14:16:43;8.02;;;6.60;;
16662;SDS011;8445;51.270;9.434;2023-09-12T14:19:15;9.80;;;6.78;;
16662;SDS011;8445;51.270;9.434;2023-09-12T14:22:03;8.10;;;7.30;;
16662;SDS011;8445;51.270;9.434;2023-09-12T14:24:29;9.65;;;7.60;;
16662;SDS011;8445;51.270;9.434;2023-09-12T14:27:09;8.52;;;6.78;;
16662;SDS011;8445;51.270;9.434;2023-09-12T14:29:42;15.10;;;10.52;;
16662;SDS011;8445;51.270;9.434;2023-09-12T14:32:14;11.77;;;8.05;;
16662;SDS011;8445;51.270;9.434;2023-09-12T14:34:43;8.45;;;6.82;;
16662;SDS011;8445;51.270;9.434;2023-09-12T14:37:13;7.75;;;7.00;;
16662;SDS011;8445;51.270;9.434;2023-09-12T14:39:43;12.68;;;6.43;;
16662;SDS011;8445;51.270;9.434;2023-09-12T14:42:15;7.97;;;7.18;;
16662;SDS011;8445;51.270;9.434;2023-09-12T14:44:44;9.77;;;7.07;;
16662;SDS011;8445;51.270;9.434;2023-09-12T14:47:13;12.40;;;6.53;;
16662;SDS011;8445;51.270;9.434;2023-09-12T14:49:41;8.65;;;6.70;;
16662;SDS011;8445;51.270;9.434;2023-09-12T14:52:08;9.77;;;6.38;;
16662;SDS011;8445;51.270;9.434;2023-09-12T14:54:40;7.70;;;6.13;;
16662;SDS011;8445;51.270;9.434;2023-09-12T14:57:07;10.23;;;6.32;;
16662;SDS011;8445;51.270;9.434;2023-09-12T14:59:35;11.18;;;6.07;;
16662;SDS011;8445;51.270;9.434;2023-09-12T15:02:05;8.57;;;6.30;;
16662;SDS011;8445;51.270;9.434;2023-09-12T15:04:33;12.05;;;6.22;;
16662;SDS011;8445;51.270;9.434;2023-09-12T15:07:03;6.50;;;5.88;;
16662;SDS011;8445;51.270;9.434;2023-09-12T15:09:30;11.68;;;6.28;;
16662;SDS011;8445;51.270;9.434;2023-09-12T15:12:05;10.55;;;6.28;;
16662;SDS011;8445;51.270;9.434;2023-09-12T15:14:34;10.90;;;6.53;;
16662;SDS011;8445;51.270;9.434;2023-09-12T15:17:06;7.22;;;6.32;;
16662;SDS011;8445;51.270;9.434;2023-09-12T15:19:52;10.32;;;6.38;;
16662;SDS011;8445;51.270;9.434;2023-09-12T15:22:21;6.57;;;5.93;;
16662;SDS011;8445;51.270;9.434;2023-09-12T15:24:52;6.75;;;5.93;;
16662;SDS011;8445;51.270;9.434;2023-09-12T15:27:22;9.13;;;6.28;;
16662;SDS011;8445;51.270;9.434;2023-09-12T15:29:58;13.00;;;6.22;;